El Salvador, El Salvador

6:45 PM CST on July 22, 2014 (GMT -0600)
El Salvador International (MSLP) Elev 82 ft | 13.44 °N, 89.06 °W | Change Station

Current weather conditions updated 55 minutes ago

Clear
Clear
88 °F
Feels Like 100 °F
N
7
Wind Variable Wind from WSW

Tomorrow is forecast to be nearly the same temperature as today. Showers and thunderstorms early tomorrow night.

Today
High -- | Low -- °F
--% Chance of Precip.
Yesterday
High -- | Low -- °F
Precip. -- in
5:38 AM 6:26 PM
Waning Crescent, 14% visible
Pressure 29.77 in
Visibility -9999.0 miles
Clouds
Heat Index 100 °F
Dew Point 77 °F
Humidity 70%
Rainfall 0.00 in
Snow Depth Not available.
UV Not available.
Pollen Not available.
Air Quality Not available.
Flu Activity Not available.
METAR MSLP 222350Z 25006KT CAVOK 31/25 Q1008 A2977

More Conditions Fewer Conditions

Pressure 29.77 in
Visibility -9999.0 miles
Clouds
Heat Index 100 °F
Dew Point 77 °F
Humidity 70%
Rainfall 0.00 in
Snow Depth Not available.
UV Not available.
Pollen Not available.
Air Quality Not available.
Flu Activity Not available.
METAR MSLP 222350Z 25006KT CAVOK 31/25 Q1008 A2977

More Conditions Fewer Conditions

10-Day Weather Forecast

Almanac

Astronomy

Jul. 22, 2014 Rise Set
Actual Time 5:38 AM CST 6:26 PM CST
Civil Twilight 5:15 AM CST 6:49 PM CST
Nautical Twilight 4:49 AM CST 7:16 PM CST
Astronomical Twilight 4:21 AM CST 7:43 PM CST
Moon 2:06 AM CST (7/22) 3:07 PM CST (7/22)
Length of Visible Light 13h 33m
Length of Day
12h 47m
Tomorrow will be 0m 28s shorter.
Waning Crescent, 14% of the Moon is Illuminated
Today
Waning Crescent
Jul 26
New
Aug 3
First Quarter
Aug 10
Full
Aug 17
Last Quarter

Today's Extremes

Country Highs Country Lows

Community

WunderPhotos

Upload Photos

1,736,413 photos uploaded!

Nearby

Snow Depth

Not available.

Earthquake Activity

City Distance Mag. Time & Date
No recent earthquake activity has been reported nearby.
Minimum magnitude displayed is 2.5.

Coastal Water Temperatures

Place Temperature
No Stations Reporting

Nearby Weather Stations

Station Location Temp. Heat Index Dew Point Humidity Wind Precip. Elev Updated Type
Escalon - Zona Rosa, San Salvador 83.0 °F 86 °F 68 °F 60% NE  at  5.0 mph 0.00 in / hr 2605 ft 6:38 PM CST Normal
Antiguo Cuscatlan 81.5 °F 89 °F 77 °F 87% South  at  1.6 mph 0.00 in / hr 2776 ft 6:45 PM CST Rapid Fire

Show More Stations Show Fewer Stations